AirNav   Duncan Aviation - Near you to keep you flying
 
 1056 users online  

MN50 Arthur Field Airport
Gatzke, Minnesota, USA

GOING TO GATZKE?


FAA INFORMATION EFFECTIVE 01 DECEMBER 2022

Location

FAA Identifier: MN50
Lat/Long: 48-22-12.8830N 095-48-25.0170W
48-22.214717N 095-48.416950W
48.3702453,-95.8069492
(estimated)
Elevation: 1150 ft. / 351 m (estimated)
Variation: 05E (1985)
From city: 3 miles S of GATZKE, MN
Time zone: UTC -6 (UTC -5 during Daylight Saving Time)
Zip code: 56724

Airport Operations

Airport use: Private use. Permission required prior to landing
Activation date: 01/1977
Control tower: no
ARTCC: MINNEAPOLIS CENTER
FSS: PRINCETON FLIGHT SERVICE STATION
Attendance: UNATNDD
Wind indicator: yes
Segmented circle: no

Nearby radio navigation aids

VOR radial/distance  VOR name  Freq  Var
TVFr032/23.6THIEF RIVER FALLS VOR/DME114.4508E
ROXr184/29.4ROSEAU VOR/DME108.8005E

Airport Services

Runway Information

Runway 9/27

Dimensions: 2640 x 100 ft. / 805 x 30 m
Surface: turf
RUNWAY 9  RUNWAY 27
Traffic pattern: rightleft

Airport Ownership and Management from official FAA records

Ownership: Privately-owned
Owner: HAROLD KLAMAR
30758 340TH STREET NE
GATZKE, MN 56724
Phone 218-459-3338
Manager: HAROLD KLAMAR
30758 340TH STREET NE
GATZKE, MN 56724
Phone 218-459-3338

Airport Operational Statistics

Aircraft based on the field: 1
Single engine airplanes: 1
    

Additional Remarks

DO NOT CHART PER MINNESOTA DEPARTMENT OF TRANSPORTATION
FOR CD CTC MINNEAPOLIS ARTCC AT 651-463-5588.

Instrument Procedures

There are no published instrument procedures at MN50.

Some nearby airports with instrument procedures:

KTVF - Thief River Falls Regional Airport (24 nm SW)
KROX - Roseau Municipal Airport/Rudy Billberg Field (29 nm N)
D37 - Warren Municipal Airport (38 nm W)
48Y - Piney Pinecreek Border Airport (38 nm N)
KRRT - Warroad International Memorial Airport (39 nm NE)
 
Loc | Ops | Rwys | IFR | FBO | Links
Com | Nav | Svcs | Stats | Notes
Area around MN50 (Arthur Field Airport)
 
Road maps at: MapQuest Bing Google
 
Aerial photo
No photo
 
Sectional chart

 
Airport distance calculator
Flying to Arthur Field Airport? Find the distance to fly.

From to MN50

Sunrise and sunset
Times for 03-Dec-2022
 Local
(UTC-6)
 Zulu
(UTC)
Morning civil twilight07:2113:21
Sunrise07:5713:57
Sunset16:2922:29
Evening civil twilight17:0523:05

Current date and time
Zulu (UTC)  04-Dec-2022 01:07:12
Local (UTC-6)  03-Dec-2022 19:07:12
 
METAR
KTVF 
23nm SW 
040056Z AUTO 22007KT 10SM CLR M17/M19 A3015 RMK AO2 SLP246 T11721189 FZRANO
KROX 
29nm N 
040055Z AUTO 22006KT 10SM CLR M16/M19 A3010 RMK AO2
KRRT 
39nm NE 
040055Z AUTO 20005KT 10SM -SN CLR M18/M20 A3009 RMK AO2
KCKN 
45nm SW 
040055Z 21008KT 10SM M17/M19 A3017 RMK AO2
TAF
KTVF 
23nm SW 
031722Z 0318/0418 22016KT P6SM BKN080 FM032300 20008KT P6SM SCT100 FM040800 25010KT P6SM FEW250 FM041700 23015G25KT P6SM FEW200 WS020/27050KT
NOTAMs
Click for the latest NOTAMs
NOTAMs are issued by the DoD/FAA and will open in a separate window not controlled by AirNav.

 

 
 

Would you like to see your business listed on this page?

 If your business provides an interesting product or service to pilots, flight crews, aircraft, or users of the Arthur Field Airport, you should consider listing it here.  To start the listing process, click on the button below
 
Add a business
 

Other Pages about Arthur Field Airport

Update a link
 
Copyright © AirNav, LLC. All rights reserved. Privacy Policy  Contact